createdAt,value
2023-04-08T00:01:07.025Z,1.87
2023-04-08T00:03:35.343Z,1.83
2023-04-08T00:06:05.455Z,1.43
2023-04-08T00:08:33.551Z,1.43
2023-04-08T00:11:01.873Z,1.80
2023-04-08T00:13:30.035Z,1.50
2023-04-08T00:15:58.107Z,1.33
2023-04-08T00:18:27.221Z,1.80
2023-04-08T00:20:57.061Z,1.47
2023-04-08T00:23:26.530Z,1.40
2023-04-08T00:25:54.603Z,1.70
2023-04-08T00:28:22.693Z,1.40
2023-04-08T00:30:51.678Z,1.67
2023-04-08T00:33:19.919Z,2.07
2023-04-08T00:35:48.205Z,1.23
2023-04-08T00:38:16.351Z,1.50
2023-04-08T00:40:45.877Z,1.33
2023-04-08T00:43:14.115Z,1.30
2023-04-08T00:45:42.239Z,1.60
2023-04-08T00:48:10.414Z,1.50
2023-04-08T00:50:38.520Z,1.50
2023-04-08T00:53:06.788Z,1.47
2023-04-08T00:55:34.928Z,1.97
2023-04-08T00:58:04.476Z,1.20
2023-04-08T01:00:33.881Z,1.13
2023-04-08T01:03:13.392Z,1.17
2023-04-08T01:05:48.732Z,1.60
2023-04-08T01:08:18.764Z,1.63
2023-04-08T01:10:51.015Z,1.23
2023-04-08T01:13:22.738Z,1.47
2023-04-08T01:15:51.819Z,1.63
2023-04-08T01:18:21.633Z,1.50
2023-04-08T01:20:51.546Z,1.50
2023-04-08T01:23:25.807Z,1.63
2023-04-08T01:25:56.027Z,1.57
2023-04-08T01:28:26.436Z,1.37
2023-04-08T01:30:58.014Z,1.20
2023-04-08T01:33:29.746Z,1.43
2023-04-08T01:35:59.117Z,1.20
2023-04-08T01:38:29.021Z,1.43
2023-04-08T01:40:59.087Z,1.13
2023-04-08T01:43:28.855Z,1.40
2023-04-08T01:45:59.015Z,1.30
2023-04-08T01:48:28.164Z,1.20
2023-04-08T01:50:57.953Z,1.10
2023-04-08T01:53:26.225Z,1.30
2023-04-08T01:55:59.724Z,1.00
2023-04-08T01:58:37.022Z,1.27
2023-04-08T02:01:07.394Z,1.53
2023-04-08T02:03:36.816Z,1.30
2023-04-08T02:06:05.158Z,1.57
2023-04-08T02:08:35.364Z,1.20
2023-04-08T02:11:05.562Z,1.00
2023-04-08T02:13:34.227Z,1.47
2023-04-08T02:16:08.570Z,1.10
2023-04-08T02:18:40.177Z,1.30
2023-04-08T02:21:12.729Z,1.27
2023-04-08T02:23:42.604Z,1.53
2023-04-08T02:26:15.611Z,1.40
2023-04-08T02:28:44.873Z,1.40
2023-04-08T02:31:15.039Z,1.50
2023-04-08T02:33:47.748Z,1.33
2023-04-08T02:36:16.701Z,1.40
2023-04-08T02:38:49.402Z,1.40
2023-04-08T02:41:19.662Z,1.10
2023-04-08T02:43:48.047Z,1.00
2023-04-08T02:46:16.416Z,1.30
2023-04-08T02:48:44.616Z,1.23
2023-04-08T02:51:12.754Z,1.10
2023-04-08T02:53:40.855Z,1.33
2023-04-08T02:56:11.523Z,1.00
2023-04-08T02:58:40.998Z,1.33
2023-04-08T03:01:10.310Z,1.40
2023-04-08T03:03:39.672Z,1.10
2023-04-08T03:06:07.964Z,1.50
2023-04-08T03:08:36.052Z,1.20
2023-04-08T03:11:04.156Z,1.40
2023-04-08T03:13:32.282Z,1.20
2023-04-08T03:16:01.783Z,1.23
2023-04-08T03:18:29.848Z,1.27
2023-04-08T03:20:58.259Z,1.30
2023-04-08T03:23:26.400Z,1.13
2023-04-08T03:25:54.458Z,1.13
2023-04-08T03:28:22.629Z,1.47
2023-04-08T03:30:51.005Z,1.30
2023-04-08T03:33:20.811Z,1.30
2023-04-08T03:35:48.991Z,1.87
2023-04-08T03:38:17.099Z,1.20
2023-04-08T03:40:45.233Z,1.30
2023-04-08T03:43:13.622Z,1.47
2023-04-08T03:45:41.891Z,1.27
2023-04-08T03:48:10.007Z,1.43
2023-04-08T03:50:39.418Z,1.20
2023-04-08T03:53:11.170Z,1.30
2023-04-08T03:55:39.395Z,1.40
2023-04-08T03:58:07.627Z,1.00
2023-04-08T04:00:37.227Z,1.30
2023-04-08T04:03:05.578Z,1.13
2023-04-08T04:05:33.778Z,1.33
2023-04-08T04:08:03.208Z,1.20
2023-04-08T04:10:31.315Z,1.20
2023-04-08T04:12:59.483Z,1.20
2023-04-08T04:15:27.708Z,1.20
2023-04-08T04:17:55.889Z,1.33
2023-04-08T04:20:25.998Z,1.17
2023-04-08T04:22:54.142Z,0.90
2023-04-08T04:25:23.970Z,1.30
2023-04-08T04:27:52.230Z,1.17
2023-04-08T04:30:20.586Z,1.27
2023-04-08T04:32:48.717Z,1.27
2023-04-08T04:35:16.976Z,1.07
2023-04-08T04:37:45.087Z,1.10
2023-04-08T04:40:13.503Z,1.43
2023-04-08T04:42:42.972Z,1.33
2023-04-08T04:45:12.514Z,1.17
2023-04-08T04:47:40.817Z,1.07
2023-04-08T04:50:10.013Z,0.90
2023-04-08T04:52:38.164Z,1.30
2023-04-08T04:55:07.161Z,1.30
2023-04-08T04:57:35.264Z,1.07
2023-04-08T05:00:05.808Z,0.83
2023-04-08T05:02:34.196Z,0.97
2023-04-08T05:05:02.509Z,1.20
2023-04-08T05:07:30.797Z,1.07
2023-04-08T05:09:58.897Z,1.07
2023-04-08T05:12:28.303Z,0.90
2023-04-08T05:14:56.437Z,1.00
2023-04-08T05:17:25.899Z,1.00
2023-04-08T05:19:54.337Z,1.27
2023-04-08T05:22:22.417Z,1.00
2023-04-08T05:24:50.545Z,1.03
2023-04-08T05:27:18.671Z,1.20
2023-04-08T05:29:46.758Z,1.10
2023-04-08T05:32:16.910Z,0.90
2023-04-08T05:34:46.395Z,1.03
2023-04-08T05:37:14.640Z,1.23
2023-04-08T05:39:42.834Z,0.90
2023-04-08T05:42:12.832Z,1.00
2023-04-08T05:44:43.889Z,0.97
2023-04-08T05:47:12.179Z,0.83
2023-04-08T05:49:40.369Z,0.80
2023-04-08T05:52:09.860Z,0.90
2023-04-08T05:54:37.956Z,1.40
2023-04-08T05:57:06.877Z,1.00
2023-04-08T05:59:36.254Z,0.80
2023-04-08T06:02:05.401Z,1.00
2023-04-08T06:04:33.758Z,0.80
2023-04-08T06:07:03.049Z,0.80
2023-04-08T06:09:35.591Z,0.83
2023-04-08T06:12:03.712Z,1.10
2023-04-08T06:14:31.817Z,0.83
2023-04-08T06:17:00.037Z,0.90
2023-04-08T06:19:28.179Z,1.03
2023-04-08T06:21:58.988Z,0.87
2023-04-08T06:24:27.737Z,0.90
2023-04-08T06:26:57.654Z,1.17
2023-04-08T06:29:25.873Z,0.83
2023-04-08T06:31:54.030Z,1.10
2023-04-08T06:34:22.169Z,0.83
2023-04-08T06:36:52.171Z,1.10
2023-04-08T06:39:21.523Z,0.77
2023-04-08T06:41:49.706Z,0.90
2023-04-08T06:44:30.235Z,0.83
2023-04-08T06:46:58.373Z,0.67
2023-04-08T06:49:27.110Z,1.00
2023-04-08T06:51:55.343Z,0.70
2023-04-08T06:54:23.478Z,0.83
2023-04-08T06:56:51.585Z,0.93
2023-04-08T06:59:19.698Z,0.87
2023-04-08T07:01:49.284Z,0.87
2023-04-08T07:04:17.610Z,1.00
2023-04-08T07:06:45.817Z,0.83
2023-04-08T07:09:13.921Z,1.00
2023-04-08T07:11:42.019Z,0.70
2023-04-08T07:14:10.263Z,1.10
2023-04-08T07:16:38.476Z,0.90
2023-04-08T07:19:08.144Z,0.90
2023-04-08T07:21:36.267Z,0.93
2023-04-08T07:24:04.394Z,1.00
2023-04-08T07:26:32.684Z,0.80
2023-04-08T07:29:00.788Z,0.90
2023-04-08T07:31:28.976Z,0.93
2023-04-08T07:33:57.420Z,1.17
2023-04-08T07:36:26.987Z,0.80
2023-04-08T07:38:55.303Z,1.10
2023-04-08T07:41:23.368Z,0.90
2023-04-08T07:43:51.630Z,0.87
2023-04-08T07:46:20.540Z,1.07
2023-04-08T07:48:48.971Z,1.00
2023-04-08T07:51:17.253Z,1.00
2023-04-08T07:53:50.380Z,0.87
2023-04-08T07:56:19.310Z,1.13
2023-04-08T07:58:48.699Z,0.80
2023-04-08T08:01:19.929Z,0.80
2023-04-08T08:03:48.793Z,1.17
2023-04-08T08:06:17.554Z,1.17
2023-04-08T08:08:45.887Z,1.10
2023-04-08T08:11:15.484Z,1.00
2023-04-08T08:13:43.736Z,1.10
2023-04-08T08:16:12.613Z,1.00
2023-04-08T08:18:41.701Z,1.03
2023-04-08T08:21:10.418Z,1.00
2023-04-08T08:23:38.750Z,1.00
2023-04-08T08:26:09.878Z,0.93
2023-04-08T08:28:40.906Z,1.10
2023-04-08T08:31:09.127Z,1.10
2023-04-08T08:33:37.343Z,1.20
2023-04-08T08:36:07.097Z,1.37
2023-04-08T08:38:35.426Z,1.13
2023-04-08T08:41:04.629Z,1.10
2023-04-08T08:43:34.660Z,1.00
2023-04-08T08:46:04.355Z,1.23
2023-04-08T08:48:34.100Z,1.73
2023-04-08T08:51:02.745Z,1.00
2023-04-08T08:53:35.064Z,1.13
2023-04-08T08:58:35.341Z,1.20
2023-04-08T09:01:04.798Z,1.20
2023-04-08T09:03:33.364Z,1.20
2023-04-08T09:06:03.924Z,1.10
2023-04-08T09:08:34.005Z,1.03
2023-04-08T09:11:16.346Z,1.30
2023-04-08T09:13:45.048Z,1.10
2023-04-08T09:16:17.947Z,1.50
2023-04-08T09:18:47.472Z,1.53
2023-04-08T09:21:16.908Z,0.87
2023-04-08T09:23:46.351Z,1.30
2023-04-08T09:26:15.650Z,1.37
2023-04-08T09:28:44.764Z,1.23
2023-04-08T09:31:24.864Z,1.40
2023-04-08T09:33:55.445Z,1.10
2023-04-08T09:36:23.887Z,1.40
2023-04-08T09:38:51.999Z,1.50
2023-04-08T09:41:23.494Z,1.10
2023-04-08T09:43:54.740Z,1.60
2023-04-08T09:46:30.536Z,1.00
2023-04-08T09:49:04.037Z,1.40
2023-04-08T09:51:35.024Z,1.13
2023-04-08T09:54:07.847Z,1.40
2023-04-08T09:56:42.887Z,1.40
2023-04-08T09:59:14.880Z,1.50
2023-04-08T10:01:47.340Z,1.53
2023-04-08T10:04:18.516Z,1.03
2023-04-08T10:06:48.676Z,1.23
2023-04-08T10:09:16.912Z,1.33
2023-04-08T10:11:45.597Z,1.30
2023-04-08T10:14:13.726Z,1.13
2023-04-08T10:16:42.119Z,1.43
2023-04-08T10:19:41.821Z,1.30
2023-04-08T10:22:47.951Z,1.37
2023-04-08T10:25:35.110Z,1.40
2023-04-08T10:28:23.562Z,1.37
2023-04-08T10:30:52.684Z,1.40
2023-04-08T10:33:23.376Z,1.20
2023-04-08T10:35:55.339Z,1.80
2023-04-08T10:38:23.957Z,1.20
2023-04-08T10:40:52.519Z,1.30
2023-04-08T10:43:20.828Z,1.37
2023-04-08T10:45:51.347Z,1.27
2023-04-08T10:48:20.767Z,1.40
2023-04-08T10:50:59.532Z,1.40
2023-04-08T10:53:28.477Z,1.13
2023-04-08T10:56:04.405Z,1.70
2023-04-08T10:58:32.540Z,1.43
2023-04-08T11:01:05.469Z,1.70
2023-04-08T11:03:34.927Z,1.27
2023-04-08T11:06:04.999Z,1.30
2023-04-08T11:08:34.417Z,2.00
2023-04-08T11:11:02.863Z,1.60
2023-04-08T11:13:31.713Z,1.50
2023-04-08T11:16:01.065Z,1.27
2023-04-08T11:18:29.590Z,1.70
2023-04-08T11:21:00.166Z,1.40
2023-04-08T11:23:30.005Z,1.37
2023-04-08T11:25:58.589Z,1.60
2023-04-08T11:28:27.243Z,1.50
2023-04-08T11:30:56.396Z,1.80
2023-04-08T11:33:27.282Z,1.20
2023-04-08T11:35:55.570Z,1.70
2023-04-08T11:38:24.966Z,1.90
2023-04-08T11:40:58.833Z,1.67
2023-04-08T11:43:27.494Z,2.10
2023-04-08T11:45:55.786Z,1.70
2023-04-08T11:48:24.109Z,1.70
2023-04-08T11:51:05.021Z,1.80
2023-04-08T11:53:33.196Z,1.63
2023-04-08T11:56:20.469Z,1.57
2023-04-08T11:58:51.993Z,1.60
2023-04-08T12:01:21.130Z,2.03
2023-04-08T12:04:01.305Z,1.80
2023-04-08T12:06:31.672Z,1.70
2023-04-08T12:08:59.864Z,1.83
2023-04-08T12:11:29.433Z,1.77
2023-04-08T12:13:57.711Z,1.70
2023-04-08T12:16:25.962Z,1.50
2023-04-08T12:18:54.131Z,1.70
2023-04-08T12:21:22.249Z,1.77
2023-04-08T12:23:50.806Z,1.40
2023-04-08T12:26:19.718Z,1.87
2023-04-08T12:28:49.333Z,1.60
2023-04-08T12:31:17.875Z,1.60
2023-04-08T12:33:46.081Z,1.70
2023-04-08T12:36:14.259Z,1.70
2023-04-08T12:38:42.735Z,1.70
2023-04-08T12:41:11.028Z,1.80
2023-04-08T12:43:39.189Z,1.83
2023-04-08T12:46:08.694Z,1.77
2023-04-08T12:48:36.936Z,1.90
2023-04-08T12:51:05.406Z,2.00
2023-04-08T12:53:33.611Z,2.07
2023-04-08T12:56:02.852Z,2.20
2023-04-08T12:58:31.166Z,1.90
2023-04-08T13:00:59.412Z,2.87
2023-04-08T13:03:31.875Z,2.57
2023-04-08T13:06:00.137Z,2.80
2023-04-08T13:08:28.298Z,1.87
2023-04-08T13:10:59.231Z,2.50
2023-04-08T13:13:27.457Z,2.10
2023-04-08T13:15:56.625Z,1.90
2023-04-08T13:18:24.816Z,2.30
2023-04-08T13:20:54.792Z,2.30
2023-04-08T13:23:22.882Z,2.90
2023-04-08T13:25:51.591Z,2.50
2023-04-08T13:28:19.658Z,2.93
2023-04-08T13:30:47.823Z,2.20
2023-04-08T13:33:15.949Z,2.63
2023-04-08T13:35:44.044Z,1.97
2023-04-08T13:38:13.879Z,2.50
2023-04-08T13:40:42.318Z,2.27
2023-04-08T13:43:10.502Z,2.10
2023-04-08T13:45:38.902Z,3.03
2023-04-08T13:48:07.379Z,2.30
2023-04-08T13:50:35.637Z,2.47
2023-04-08T13:53:03.738Z,1.90
2023-04-08T13:55:33.259Z,2.47
2023-04-08T13:58:02.444Z,2.20
2023-04-08T14:00:32.803Z,2.50
2023-04-08T14:03:01.172Z,2.40
2023-04-08T14:05:29.391Z,1.67
2023-04-08T14:07:57.565Z,2.30
2023-04-08T14:10:25.727Z,3.03
2023-04-08T14:12:55.471Z,2.30
2023-04-08T14:15:23.533Z,2.37
2023-04-08T14:17:51.735Z,2.00
2023-04-08T14:20:19.891Z,1.80
2023-04-08T14:22:48.015Z,2.20
2023-04-08T14:25:16.369Z,1.87
2023-04-08T14:27:56.676Z,2.20
2023-04-08T14:30:28.826Z,2.37
2023-04-08T14:32:59.157Z,2.13
2023-04-08T14:35:27.393Z,2.00
2023-04-08T14:37:55.669Z,2.10
2023-04-08T14:40:24.133Z,1.50
2023-04-08T14:42:52.298Z,1.47
2023-04-08T14:45:20.699Z,1.60
2023-04-08T14:47:50.394Z,1.80
2023-04-08T14:50:19.412Z,1.90
2023-04-08T14:52:48.986Z,2.03
2023-04-08T14:55:17.801Z,1.73
2023-04-08T14:57:45.950Z,1.80
2023-04-08T15:00:14.964Z,1.73
2023-04-08T15:02:43.196Z,1.83
2023-04-08T15:05:12.784Z,1.83
2023-04-08T15:07:41.776Z,1.53
2023-04-08T15:10:11.729Z,2.10
2023-04-08T15:12:39.918Z,1.77
2023-04-08T15:15:09.537Z,1.70
2023-04-08T15:17:37.924Z,1.73
2023-04-08T15:20:07.694Z,1.60
2023-04-08T15:22:37.188Z,1.90
2023-04-08T15:25:06.142Z,1.37
2023-04-08T15:27:35.218Z,1.80
2023-04-08T15:30:03.434Z,1.50
2023-04-08T15:32:32.346Z,1.60
2023-04-08T15:35:00.535Z,1.50
2023-04-08T15:37:28.667Z,1.50
2023-04-08T15:39:58.121Z,1.70
2023-04-08T15:42:26.213Z,2.60
2023-04-08T15:44:54.288Z,1.97
2023-04-08T15:47:22.688Z,1.80
2023-04-08T15:49:53.550Z,1.60
2023-04-08T15:52:21.708Z,1.73
2023-04-08T15:54:49.815Z,1.40
2023-04-08T15:57:19.305Z,1.50
2023-04-08T15:59:47.433Z,1.50
2023-04-08T16:02:15.636Z,1.80
2023-04-08T16:04:44.704Z,1.60
2023-04-08T16:07:13.463Z,1.53
2023-04-08T16:09:41.689Z,1.40
2023-04-08T16:12:09.952Z,2.10
2023-04-08T16:14:39.442Z,1.57
2023-04-08T16:17:07.589Z,1.63
2023-04-08T16:19:35.653Z,1.80
2023-04-08T16:22:03.769Z,1.60
2023-04-08T16:24:31.894Z,1.57
2023-04-08T16:27:00.642Z,1.57
2023-04-08T16:29:28.792Z,1.80
2023-04-08T16:31:58.244Z,1.50
2023-04-08T16:34:26.387Z,2.00
2023-04-08T16:36:54.506Z,1.40
2023-04-08T16:39:22.732Z,2.03
2023-04-08T16:41:50.776Z,1.63
2023-04-08T16:44:21.105Z,1.60
2023-04-08T16:46:49.189Z,1.60
2023-04-08T16:49:18.950Z,1.57
2023-04-08T16:51:47.143Z,1.70
2023-04-08T16:54:15.390Z,1.50
2023-04-08T16:56:45.570Z,1.80
2023-04-08T16:59:13.775Z,1.30
2023-04-08T17:01:42.174Z,1.77
2023-04-08T17:04:10.738Z,1.57
2023-04-08T17:06:41.468Z,1.67
2023-04-08T17:09:09.759Z,1.80
2023-04-08T17:11:37.901Z,1.80
2023-04-08T17:14:06.134Z,1.43
2023-04-08T17:16:34.339Z,1.33
2023-04-08T17:19:05.954Z,1.83
2023-04-08T17:21:35.808Z,1.40
2023-04-08T17:24:05.337Z,1.40
2023-04-08T17:26:33.404Z,1.50
2023-04-08T17:29:01.493Z,1.70
2023-04-08T17:31:29.922Z,1.30
2023-04-08T17:33:58.055Z,1.40
2023-04-08T17:36:28.589Z,1.20
2023-04-08T17:38:58.628Z,1.53
2023-04-08T17:41:39.008Z,1.20
2023-04-08T17:44:08.311Z,1.40
2023-04-08T17:46:36.762Z,1.20
2023-04-08T17:49:04.916Z,1.93
2023-04-08T17:51:33.085Z,1.47
2023-04-08T17:54:01.310Z,1.33
2023-04-08T17:56:31.032Z,1.43
2023-04-08T17:58:59.160Z,1.27
2023-04-08T18:01:27.310Z,1.47
2023-04-08T18:03:56.060Z,1.63
2023-04-08T18:06:24.502Z,1.43
2023-04-08T18:08:52.635Z,1.30
2023-04-08T18:11:21.081Z,1.30
2023-04-08T18:13:50.970Z,1.10
2023-04-08T18:16:20.423Z,1.30
2023-04-08T18:18:49.387Z,1.43
2023-04-08T18:21:18.583Z,1.50
2023-04-08T18:23:47.892Z,1.47
2023-04-08T18:26:16.127Z,1.30
2023-04-08T18:28:44.279Z,1.73
2023-04-08T18:31:13.934Z,1.30
2023-04-08T18:33:42.336Z,1.20
2023-04-08T18:36:12.368Z,1.37
2023-04-08T18:38:41.210Z,1.30
2023-04-08T18:41:09.879Z,0.97
2023-04-08T18:43:38.046Z,1.37
2023-04-08T18:46:06.330Z,1.20
2023-04-08T18:48:35.813Z,1.30
2023-04-08T18:51:04.259Z,1.20
2023-04-08T18:53:32.501Z,0.97
2023-04-08T18:56:00.811Z,1.60
2023-04-08T18:58:28.927Z,1.30
2023-04-08T19:00:57.094Z,1.10
2023-04-08T19:03:27.188Z,1.10
2023-04-08T19:05:56.839Z,1.27
2023-04-08T19:08:24.966Z,1.30
2023-04-08T19:10:53.060Z,1.43
2023-04-08T19:13:23.008Z,1.50
2023-04-08T19:15:51.152Z,1.00
2023-04-08T19:18:19.318Z,1.40
2023-04-08T19:20:47.535Z,1.20
2023-04-08T19:23:18.823Z,1.20
2023-04-08T19:25:47.491Z,1.17
2023-04-08T19:28:15.877Z,1.10
2023-04-08T19:30:43.994Z,1.40
2023-04-08T19:33:12.482Z,1.10
2023-04-08T19:35:41.001Z,1.37
2023-04-08T19:38:09.125Z,1.30
2023-04-08T19:40:40.396Z,1.20
2023-04-08T19:43:08.484Z,1.40
2023-04-08T19:45:36.610Z,1.23
2023-04-08T19:48:04.817Z,1.50
2023-04-08T19:50:33.071Z,1.30
2023-04-08T19:53:01.537Z,1.00
2023-04-08T19:55:31.417Z,1.03
2023-04-08T19:58:01.605Z,1.10
2023-04-08T20:00:29.907Z,1.73
2023-04-08T20:02:58.237Z,1.20
2023-04-08T20:05:26.531Z,1.20
2023-04-08T20:07:54.664Z,1.53
2023-04-08T20:10:22.940Z,1.27
2023-04-08T20:12:51.051Z,1.23
2023-04-08T20:15:25.061Z,1.30
2023-04-08T20:17:54.130Z,1.20
2023-04-08T20:20:22.812Z,1.17
2023-04-08T20:22:51.128Z,1.40
2023-04-08T20:25:19.457Z,1.13
2023-04-08T20:27:47.653Z,1.40
2023-04-08T20:30:15.876Z,1.43
2023-04-08T20:32:45.482Z,1.50
2023-04-08T20:35:13.886Z,1.57
2023-04-08T20:37:42.021Z,1.40
2023-04-08T20:40:11.105Z,1.50
2023-04-08T20:42:39.497Z,1.40
2023-04-08T20:45:08.987Z,1.47
2023-04-08T20:47:37.164Z,1.53
2023-04-08T20:50:07.946Z,1.27
2023-04-08T20:52:36.129Z,1.60
2023-04-08T20:55:04.290Z,1.70
2023-04-08T20:57:32.397Z,1.70
2023-04-08T21:00:00.703Z,1.33
2023-04-08T21:02:28.927Z,1.50
2023-04-08T21:04:57.150Z,1.23
2023-04-08T21:07:27.206Z,1.30
2023-04-08T21:09:55.760Z,1.20
2023-04-08T21:12:23.940Z,1.73
2023-04-08T21:14:52.071Z,1.17
2023-04-08T21:17:20.231Z,1.40
2023-04-08T21:19:48.363Z,1.13
2023-04-08T21:22:17.675Z,1.30
2023-04-08T21:24:47.246Z,1.03
2023-04-08T21:27:15.403Z,1.30
2023-04-08T21:29:43.611Z,1.30
2023-04-08T21:32:11.935Z,1.20
2023-04-08T21:34:40.091Z,1.40
2023-04-08T21:37:08.247Z,1.30
2023-04-08T21:39:36.429Z,1.20
2023-04-08T21:42:05.972Z,1.17
2023-04-08T21:44:34.162Z,1.37
2023-04-08T21:47:02.459Z,1.10
2023-04-08T21:49:30.756Z,1.23
2023-04-08T21:51:58.946Z,1.20
2023-04-08T21:54:27.151Z,1.17
2023-04-08T21:56:56.665Z,1.40
2023-04-08T21:59:27.690Z,0.90
2023-04-08T22:01:56.023Z,1.60
2023-04-08T22:04:24.192Z,1.00
2023-04-08T22:06:52.844Z,1.30
2023-04-08T22:09:20.964Z,1.40
2023-04-08T22:11:49.059Z,1.03
2023-04-08T22:14:17.594Z,1.60
2023-04-08T22:16:47.188Z,1.50
2023-04-08T22:19:15.804Z,1.30
2023-04-08T22:21:43.991Z,1.37
2023-04-08T22:24:12.112Z,1.60
2023-04-08T22:26:40.225Z,1.50
2023-04-08T22:29:08.319Z,1.20
2023-04-08T22:31:36.469Z,1.17
2023-04-08T22:34:06.052Z,1.20
2023-04-08T22:36:34.167Z,1.37
2023-04-08T22:39:02.309Z,1.03
2023-04-08T22:41:30.549Z,1.50
2023-04-08T22:43:58.643Z,1.07
2023-04-08T22:46:26.828Z,1.20
2023-04-08T22:48:54.992Z,1.20
2023-04-08T22:51:24.520Z,1.20
2023-04-08T22:53:52.677Z,1.50
2023-04-08T22:56:21.437Z,1.33
2023-04-08T22:58:49.635Z,1.17
2023-04-08T23:01:20.831Z,1.50
2023-04-08T23:03:49.050Z,1.13
2023-04-08T23:06:17.336Z,1.00
2023-04-08T23:08:46.806Z,1.20
2023-04-08T23:11:14.882Z,1.13
2023-04-08T23:13:43.218Z,1.37
2023-04-08T23:16:13.274Z,1.30
2023-04-08T23:18:41.369Z,1.20
2023-04-08T23:21:09.480Z,1.20
2023-04-08T23:23:37.604Z,1.30
2023-04-08T23:26:07.137Z,1.20
2023-04-08T23:28:35.599Z,1.40
2023-04-08T23:31:05.861Z,1.20
2023-04-08T23:33:33.960Z,1.30
2023-04-08T23:36:02.090Z,1.10
2023-04-08T23:38:30.385Z,1.13
2023-04-08T23:40:58.445Z,1.47
2023-04-08T23:43:27.905Z,1.57
2023-04-08T23:45:56.002Z,1.20
2023-04-08T23:48:24.132Z,1.10
2023-04-08T23:50:52.543Z,1.07
2023-04-08T23:53:21.128Z,1.10
2023-04-08T23:55:49.370Z,1.13
2023-04-08T23:58:17.493Z,1.30
